createdAt,value
2023-04-18T00:02:04.367Z,102056.06
2023-04-18T00:04:34.020Z,102051.69
2023-04-18T00:07:02.061Z,102053.69
2023-04-18T00:09:29.925Z,102050.06
2023-04-18T00:11:57.720Z,102052.03
2023-04-18T00:14:25.743Z,102050.25
2023-04-18T00:16:54.957Z,102051.16
2023-04-18T00:19:22.731Z,102040.38
2023-04-18T00:21:53.114Z,102049.63
2023-04-18T00:24:21.081Z,102041.50
2023-04-18T00:26:49.197Z,102039.75
2023-04-18T00:29:17.061Z,102037.13
2023-04-18T00:31:44.898Z,102040.06
2023-04-18T00:34:14.437Z,102037.31
2023-04-18T00:36:42.451Z,102037.69
2023-04-18T00:39:10.755Z,102037.78
2023-04-18T00:41:38.544Z,102044.38
2023-04-18T00:44:06.593Z,102039.09
2023-04-18T00:46:34.462Z,102042.06
2023-04-18T00:49:02.404Z,102038.69
2023-04-18T00:51:32.100Z,102034.19
2023-04-18T00:54:00.257Z,102028.13
2023-04-18T00:56:28.508Z,102035.59
2023-04-18T00:58:59.450Z,102036.69
2023-04-18T01:01:27.458Z,102040.53
2023-04-18T01:03:55.509Z,102034.41
2023-04-18T01:06:23.660Z,102025.41
2023-04-18T01:08:53.939Z,102028.34
2023-04-18T01:11:21.904Z,102022.22
2023-04-18T01:14:00.083Z,102021.34
2023-04-18T01:16:29.703Z,102021.81
2023-04-18T01:18:57.510Z,102018.38
2023-04-18T01:21:26.932Z,102021.22
2023-04-18T01:23:57.348Z,102020.44
2023-04-18T01:26:26.968Z,102012.47
2023-04-18T01:28:54.746Z,102011.91
2023-04-18T01:31:22.678Z,102009.50
2023-04-18T01:33:50.548Z,102008.94
2023-04-18T01:36:18.426Z,102003.56
2023-04-18T01:38:46.215Z,102009.34
2023-04-18T01:41:14.171Z,102007.81
2023-04-18T01:43:44.863Z,102012.50
2023-04-18T01:46:12.854Z,102008.22
2023-04-18T01:48:40.742Z,102001.09
2023-04-18T01:51:08.610Z,102003.06
2023-04-18T01:53:36.490Z,102005.16
2023-04-18T01:56:04.443Z,101997.13
2023-04-18T01:58:32.258Z,101997.22
2023-04-18T02:01:01.588Z,101997.34
2023-04-18T02:03:29.631Z,102003.03
2023-04-18T02:05:57.723Z,101998.53
2023-04-18T02:08:25.540Z,101995.03
2023-04-18T02:10:53.413Z,101993.38
2023-04-18T02:13:21.703Z,101995.34
2023-04-18T02:15:49.568Z,101997.41
2023-04-18T02:18:19.233Z,101991.94
2023-04-18T02:20:47.752Z,101987.63
2023-04-18T02:23:15.555Z,101990.50
2023-04-18T02:25:43.558Z,101992.56
2023-04-18T02:28:11.423Z,101996.38
2023-04-18T02:30:39.378Z,101991.13
2023-04-18T02:33:07.242Z,101998.53
2023-04-18T02:35:38.279Z,102001.38
2023-04-18T02:38:06.479Z,101993.50
2023-04-18T02:40:34.292Z,101992.72
2023-04-18T02:43:02.643Z,101992.03
2023-04-18T02:45:30.454Z,101994.00
2023-04-18T02:48:00.718Z,101992.34
2023-04-18T02:50:29.089Z,101996.94
2023-04-18T02:53:00.018Z,101990.59
2023-04-18T02:55:38.274Z,101998.00
2023-04-18T02:58:06.343Z,102004.59
2023-04-18T03:00:37.068Z,101998.44
2023-04-18T03:03:19.636Z,102006.06
2023-04-18T03:05:56.337Z,101996.09
2023-04-18T03:08:26.068Z,101998.84
2023-04-18T03:10:56.317Z,102006.34
2023-04-18T03:13:25.968Z,102015.66
2023-04-18T03:15:53.982Z,102009.41
2023-04-18T03:18:21.806Z,102007.75
2023-04-18T03:20:50.760Z,102007.09
2023-04-18T03:23:18.647Z,102007.16
2023-04-18T03:25:48.359Z,102010.78
2023-04-18T03:28:16.450Z,102012.03
2023-04-18T03:30:44.291Z,102015.75
2023-04-18T03:33:13.267Z,102014.09
2023-04-18T03:35:41.705Z,102011.38
2023-04-18T03:38:09.747Z,102010.69
2023-04-18T03:40:40.353Z,102014.38
2023-04-18T03:43:17.078Z,102017.25
2023-04-18T03:45:47.233Z,102011.06
2023-04-18T03:48:16.862Z,102009.38
2023-04-18T03:50:46.530Z,102008.63
2023-04-18T03:53:14.421Z,102006.97
2023-04-18T03:55:43.383Z,102009.69
2023-04-18T03:58:13.349Z,102007.16
2023-04-18T04:00:42.886Z,102011.81
2023-04-18T04:03:12.182Z,102013.69
2023-04-18T04:05:41.140Z,102013.91
2023-04-18T04:08:09.005Z,102011.34
2023-04-18T04:10:37.124Z,102016.91
2023-04-18T04:13:05.053Z,102017.91
2023-04-18T04:15:37.349Z,102020.72
2023-04-18T04:18:09.118Z,102028.13
2023-04-18T04:20:40.224Z,102028.31
2023-04-18T04:23:15.165Z,102023.81
2023-04-18T04:25:46.514Z,102035.75
2023-04-18T04:28:26.221Z,102028.63
2023-04-18T04:30:59.988Z,102032.22
2023-04-18T04:33:29.904Z,102027.66
2023-04-18T04:36:02.214Z,102034.06
2023-04-18T04:38:33.236Z,102047.72
2023-04-18T04:41:01.522Z,102044.91
2023-04-18T04:43:30.807Z,102053.00
2023-04-18T04:45:59.057Z,102057.59
2023-04-18T04:48:27.077Z,102053.78
2023-04-18T04:50:57.983Z,102056.31
2023-04-18T04:53:27.958Z,102058.97
2023-04-18T04:55:55.932Z,102058.00
2023-04-18T04:58:24.188Z,102064.22
2023-04-18T05:01:03.066Z,102068.78
2023-04-18T05:03:33.179Z,102064.22
2023-04-18T05:06:02.579Z,102077.69
2023-04-18T05:08:30.409Z,102069.50
2023-04-18T05:10:58.216Z,102073.09
2023-04-18T05:13:25.970Z,102077.59
2023-04-18T05:15:53.812Z,102080.25
2023-04-18T05:18:21.871Z,102081.97
2023-04-18T05:20:49.674Z,102083.63
2023-04-18T05:23:18.794Z,102086.28
2023-04-18T05:25:46.646Z,102082.56
2023-04-18T05:28:14.497Z,102085.22
2023-04-18T05:30:42.382Z,102087.88
2023-04-18T05:33:10.413Z,102089.50
2023-04-18T05:35:38.308Z,102094.97
2023-04-18T05:38:06.302Z,102096.72
2023-04-18T05:40:35.557Z,102100.28
2023-04-18T05:43:03.414Z,102093.91
2023-04-18T05:45:31.376Z,102094.81
2023-04-18T05:47:59.335Z,102104.78
2023-04-18T05:50:27.237Z,102107.50
2023-04-18T05:52:55.032Z,102111.00
2023-04-18T05:55:22.858Z,102112.88
2023-04-18T05:57:52.106Z,102110.81
2023-04-18T06:00:20.726Z,102113.63
2023-04-18T06:02:49.674Z,102124.47
2023-04-18T06:05:18.127Z,102127.22
2023-04-18T06:07:46.030Z,102134.25
2023-04-18T06:10:13.885Z,102124.09
2023-04-18T06:12:41.728Z,102114.81
2023-04-18T06:15:12.490Z,102120.78
2023-04-18T06:17:40.453Z,102126.06
2023-04-18T06:20:09.042Z,102126.53
2023-04-18T06:22:36.896Z,102124.28
2023-04-18T06:25:05.017Z,102122.91
2023-04-18T06:27:32.834Z,102128.75
2023-04-18T06:30:00.627Z,102126.41
2023-04-18T06:32:29.940Z,102118.28
2023-04-18T06:34:57.885Z,102127.84
2023-04-18T06:37:25.892Z,102125.28
2023-04-18T06:39:53.841Z,102132.00
2023-04-18T06:42:22.668Z,102119.56
2023-04-18T06:44:50.778Z,102131.88
2023-04-18T06:47:18.771Z,102130.28
2023-04-18T06:49:48.187Z,102127.69
2023-04-18T06:52:16.112Z,102135.59
2023-04-18T06:54:43.963Z,102133.84
2023-04-18T06:57:12.055Z,102135.09
2023-04-18T06:59:41.327Z,102131.81
2023-04-18T07:02:09.676Z,102137.63
2023-04-18T07:04:37.558Z,102138.75
2023-04-18T07:07:06.778Z,102137.91
2023-04-18T07:09:34.611Z,102130.13
2023-04-18T07:12:02.595Z,102136.69
2023-04-18T07:14:31.746Z,102140.53
2023-04-18T07:17:01.688Z,102140.75
2023-04-18T07:19:29.571Z,102137.16
2023-04-18T07:21:57.770Z,102152.94
2023-04-18T07:24:27.042Z,102148.41
2023-04-18T07:26:55.282Z,102153.66
2023-04-18T07:29:23.268Z,102154.31
2023-04-18T07:31:51.202Z,102163.53
2023-04-18T07:34:19.050Z,102156.53
2023-04-18T07:36:46.917Z,102159.72
2023-04-18T07:39:14.814Z,102161.28
2023-04-18T07:41:44.101Z,102168.19
2023-04-18T07:44:11.976Z,102164.47
2023-04-18T07:46:40.202Z,102167.09
2023-04-18T07:49:08.111Z,102148.66
2023-04-18T07:51:36.030Z,102171.34
2023-04-18T07:54:03.944Z,102170.22
2023-04-18T07:56:31.834Z,102169.88
2023-04-18T07:59:01.696Z,102170.31
2023-04-18T08:01:29.596Z,102176.53
2023-04-18T08:04:02.039Z,102175.09
2023-04-18T08:06:30.878Z,102175.72
2023-04-18T08:09:03.134Z,102178.91
2023-04-18T08:11:31.249Z,102187.50
2023-04-18T08:13:59.238Z,102191.34
2023-04-18T08:16:29.494Z,102187.94
2023-04-18T08:18:57.410Z,102185.41
2023-04-18T08:21:26.841Z,102191.19
2023-04-18T08:23:54.763Z,102188.53
2023-04-18T08:26:22.929Z,102200.78
2023-04-18T08:28:51.152Z,102191.13
2023-04-18T08:31:19.230Z,102188.50
2023-04-18T08:33:48.631Z,102180.44
2023-04-18T08:36:16.654Z,102187.22
2023-04-18T08:38:44.555Z,102185.44
2023-04-18T08:41:12.701Z,102186.44
2023-04-18T08:43:40.642Z,102183.03
2023-04-18T08:46:09.137Z,102188.50
2023-04-18T08:48:37.288Z,102187.72
2023-04-18T08:51:07.037Z,102190.22
2023-04-18T08:53:35.257Z,102196.72
2023-04-18T08:56:05.411Z,102195.84
2023-04-18T08:58:34.809Z,102189.56
2023-04-18T09:01:03.022Z,102198.66
2023-04-18T09:03:39.804Z,102199.44
2023-04-18T09:06:12.516Z,102205.03
2023-04-18T09:08:43.246Z,102203.34
2023-04-18T09:11:28.915Z,102200.44
2023-04-18T09:13:59.639Z,102205.13
2023-04-18T09:16:29.318Z,102201.41
2023-04-18T09:19:14.297Z,102203.03
2023-04-18T09:21:46.251Z,102201.19
2023-04-18T09:24:24.441Z,102197.28
2023-04-18T09:26:53.859Z,102201.00
2023-04-18T09:29:23.510Z,102194.44
2023-04-18T09:32:01.113Z,102189.63
2023-04-18T09:34:30.141Z,102191.72
2023-04-18T09:37:10.265Z,102197.84
2023-04-18T09:39:39.465Z,102192.59
2023-04-18T09:42:07.926Z,102187.88
2023-04-18T09:44:35.987Z,102187.63
2023-04-18T09:47:03.870Z,102185.53
2023-04-18T09:49:31.877Z,102185.34
2023-04-18T09:52:02.605Z,102183.06
2023-04-18T09:54:34.054Z,102180.13
2023-04-18T09:57:04.931Z,102175.22
2023-04-18T09:59:42.590Z,102174.81
2023-04-18T10:02:16.885Z,102170.88
2023-04-18T10:04:47.645Z,102168.81
2023-04-18T10:07:17.438Z,102178.47
2023-04-18T10:09:48.282Z,102169.72
2023-04-18T10:12:18.146Z,102161.31
2023-04-18T10:14:46.521Z,102169.09
2023-04-18T10:17:15.622Z,102165.03
2023-04-18T10:19:46.132Z,102164.84
2023-04-18T10:22:14.250Z,102161.75
2023-04-18T10:24:53.735Z,102151.13
2023-04-18T10:27:59.472Z,102167.28
2023-04-18T10:30:53.555Z,102155.88
2023-04-18T10:33:30.451Z,102154.44
2023-04-18T10:36:16.146Z,102152.81
2023-04-18T10:38:49.639Z,102153.06
2023-04-18T10:41:27.534Z,102146.91
2023-04-18T10:44:23.816Z,102157.34
2023-04-18T10:47:32.018Z,102147.88
2023-04-18T10:50:06.256Z,102138.09
2023-04-18T10:52:35.680Z,102136.53
2023-04-18T10:55:16.469Z,102148.50
2023-04-18T10:57:47.590Z,102144.41
2023-04-18T11:00:18.495Z,102147.56
2023-04-18T11:02:51.721Z,102141.50
2023-04-18T11:05:21.724Z,102144.03
2023-04-18T11:07:49.787Z,102136.31
2023-04-18T11:10:20.183Z,102144.31
2023-04-18T11:12:49.615Z,102144.97
2023-04-18T11:15:21.660Z,102143.84
2023-04-18T11:18:01.525Z,102143.84
2023-04-18T11:20:29.923Z,102141.22
2023-04-18T11:22:59.818Z,102145.59
2023-04-18T11:25:29.536Z,102137.38
2023-04-18T11:28:02.020Z,102140.13
2023-04-18T11:30:36.971Z,102134.09
2023-04-18T11:33:07.462Z,102140.47
2023-04-18T11:35:39.590Z,102125.09
2023-04-18T11:38:07.806Z,102129.41
2023-04-18T11:40:36.563Z,102124.81
2023-04-18T11:43:08.064Z,102125.78
2023-04-18T11:45:36.117Z,102129.63
2023-04-18T11:48:04.316Z,102127.03
2023-04-18T11:50:36.987Z,102127.66
2023-04-18T11:53:04.897Z,102126.16
2023-04-18T11:55:33.190Z,102122.41
2023-04-18T11:58:05.226Z,102115.91
2023-04-18T12:00:37.099Z,102119.41
2023-04-18T12:03:07.886Z,102121.41
2023-04-18T12:05:38.303Z,102109.09
2023-04-18T12:08:08.321Z,102119.59
2023-04-18T12:10:36.994Z,102119.13
2023-04-18T12:13:08.024Z,102114.84
2023-04-18T12:15:40.380Z,102110.00
2023-04-18T12:18:09.538Z,102106.78
2023-04-18T12:20:38.889Z,102113.44
2023-04-18T12:23:08.013Z,102107.47
2023-04-18T12:25:36.530Z,102102.34
2023-04-18T12:28:14.416Z,102106.50
2023-04-18T12:30:43.787Z,102097.13
2023-04-18T12:33:12.541Z,102089.75
2023-04-18T12:35:40.628Z,102101.41
2023-04-18T12:38:08.507Z,102103.16
2023-04-18T12:40:36.421Z,102103.16
2023-04-18T12:43:04.329Z,102104.16
2023-04-18T12:45:32.279Z,102101.41
2023-04-18T12:48:01.676Z,102096.03
2023-04-18T12:50:29.834Z,102105.53
2023-04-18T12:53:00.448Z,102093.66
2023-04-18T12:55:28.904Z,102091.00
2023-04-18T12:57:58.093Z,102100.63
2023-04-18T13:00:27.837Z,102096.00
2023-04-18T13:02:55.860Z,102094.47
2023-04-18T13:05:28.673Z,102098.97
2023-04-18T13:08:15.209Z,102098.34
2023-04-18T13:10:44.699Z,102097.34
2023-04-18T13:13:12.652Z,102092.72
2023-04-18T13:15:40.647Z,102089.00
2023-04-18T13:18:08.824Z,102094.38
2023-04-18T13:20:38.293Z,102080.38
2023-04-18T13:23:06.290Z,102078.50
2023-04-18T13:25:34.276Z,102085.63
2023-04-18T13:28:02.234Z,102081.78
2023-04-18T13:30:30.188Z,102085.28
2023-04-18T13:32:58.399Z,102076.78
2023-04-18T13:35:26.453Z,102082.81
2023-04-18T13:37:56.096Z,102094.19
2023-04-18T13:40:24.298Z,102083.97
2023-04-18T13:42:52.506Z,102077.19
2023-04-18T13:45:20.537Z,102086.09
2023-04-18T13:47:48.568Z,102080.22
2023-04-18T13:50:16.496Z,102076.47
2023-04-18T13:52:44.704Z,102057.84
2023-04-18T13:55:14.012Z,102066.72
2023-04-18T13:57:41.934Z,102068.47
2023-04-18T14:00:13.777Z,102068.25
2023-04-18T14:02:41.969Z,102065.63
2023-04-18T14:05:10.765Z,102069.72
2023-04-18T14:07:39.318Z,102068.34
2023-04-18T14:10:08.389Z,102067.16
2023-04-18T14:12:37.770Z,102068.50
2023-04-18T14:15:06.912Z,102065.53
2023-04-18T14:17:35.111Z,102067.88
2023-04-18T14:20:03.394Z,102069.63
2023-04-18T14:22:31.451Z,102056.66
2023-04-18T14:24:59.362Z,102069.41
2023-04-18T14:27:27.777Z,102063.78
2023-04-18T14:29:57.077Z,102067.25
2023-04-18T14:32:25.255Z,102053.38
2023-04-18T14:34:53.477Z,102057.88
2023-04-18T14:37:22.300Z,102066.78
2023-04-18T14:39:50.637Z,102068.38
2023-04-18T14:42:18.992Z,102066.25
2023-04-18T14:44:48.082Z,102047.00
2023-04-18T14:47:17.636Z,102060.34
2023-04-18T14:49:45.572Z,102060.25
2023-04-18T14:52:14.404Z,102060.88
2023-04-18T14:54:44.351Z,102055.38
2023-04-18T14:57:12.951Z,102054.22
2023-04-18T14:59:40.900Z,102063.34
2023-04-18T15:02:09.045Z,102060.47
2023-04-18T15:04:38.514Z,102043.59
2023-04-18T15:07:06.939Z,102045.31
2023-04-18T15:09:37.407Z,102039.44
2023-04-18T15:12:06.241Z,102057.59
2023-04-18T15:14:34.967Z,102040.06
2023-04-18T15:17:03.280Z,102045.41
2023-04-18T15:19:32.434Z,102046.28
2023-04-18T15:22:03.950Z,102050.69
2023-04-18T15:24:31.955Z,102041.66
2023-04-18T15:27:00.043Z,102046.28
2023-04-18T15:29:28.068Z,102041.53
2023-04-18T15:31:56.130Z,102038.91
2023-04-18T15:34:24.116Z,102047.16
2023-04-18T15:36:52.001Z,102044.28
2023-04-18T15:39:23.653Z,102044.16
2023-04-18T15:41:54.233Z,102034.03
2023-04-18T15:44:22.263Z,102025.03
2023-04-18T15:46:51.083Z,102045.91
2023-04-18T15:49:19.058Z,102043.03
2023-04-18T15:51:47.086Z,102040.28
2023-04-18T15:54:15.329Z,102041.13
2023-04-18T15:56:45.034Z,102039.13
2023-04-18T15:59:13.691Z,102039.13
2023-04-18T16:01:43.335Z,102048.28
2023-04-18T16:04:13.425Z,102037.13
2023-04-18T16:06:41.527Z,102049.03
2023-04-18T16:09:09.891Z,102053.53
2023-04-18T16:11:37.790Z,102058.91
2023-04-18T16:14:07.108Z,102035.84
2023-04-18T16:16:35.385Z,102052.53
2023-04-18T16:19:04.492Z,102051.66
2023-04-18T16:21:32.552Z,102046.28
2023-04-18T16:24:00.489Z,102046.41
2023-04-18T16:26:28.942Z,102042.00
2023-04-18T16:28:57.026Z,102048.69
2023-04-18T16:31:26.419Z,102055.19
2023-04-18T16:33:54.416Z,102050.03
2023-04-18T16:36:22.377Z,102047.44
2023-04-18T16:38:50.488Z,102053.06
2023-04-18T16:41:18.459Z,102048.56
2023-04-18T16:43:46.523Z,102057.06
2023-04-18T16:46:14.792Z,102048.94
2023-04-18T16:48:45.226Z,102052.44
2023-04-18T16:51:13.190Z,102054.59
2023-04-18T16:53:41.133Z,102052.84
2023-04-18T16:56:09.221Z,102056.72
2023-04-18T16:58:37.087Z,102058.59
2023-04-18T17:01:05.330Z,102050.59
2023-04-18T17:03:33.476Z,102052.50
2023-04-18T17:06:03.010Z,102051.47
2023-04-18T17:08:32.870Z,102045.22
2023-04-18T17:11:02.261Z,102050.84
2023-04-18T17:13:31.488Z,102050.09
2023-04-18T17:15:59.557Z,102055.59
2023-04-18T17:18:27.480Z,102053.84
2023-04-18T17:20:55.393Z,102053.97
2023-04-18T17:23:24.758Z,102055.00
2023-04-18T17:25:52.799Z,102057.88
2023-04-18T17:28:21.240Z,102053.38
2023-04-18T17:30:50.263Z,102065.38
2023-04-18T17:33:18.264Z,102059.13
2023-04-18T17:35:46.221Z,102061.13
2023-04-18T17:38:14.254Z,102054.00
2023-04-18T17:40:43.579Z,102059.53
2023-04-18T17:43:12.256Z,102060.63
2023-04-18T17:45:40.440Z,102058.00
2023-04-18T17:48:08.382Z,102062.03
2023-04-18T17:50:38.033Z,102056.75
2023-04-18T17:53:06.155Z,102065.41
2023-04-18T17:55:34.070Z,102068.41
2023-04-18T17:58:03.353Z,102064.00
2023-04-18T18:00:31.766Z,102066.16
2023-04-18T18:03:01.398Z,102070.97
2023-04-18T18:05:30.213Z,102070.38
2023-04-18T18:07:58.604Z,102076.22
2023-04-18T18:10:27.020Z,102074.59
2023-04-18T18:12:54.960Z,102077.59
2023-04-18T18:15:25.289Z,102073.97
2023-04-18T18:17:53.362Z,102084.50
2023-04-18T18:20:21.560Z,102085.59
2023-04-18T18:22:49.760Z,102074.84
2023-04-18T18:25:17.782Z,102088.84
2023-04-18T18:27:45.766Z,102082.59
2023-04-18T18:30:14.333Z,102081.81
2023-04-18T18:32:43.889Z,102087.44
2023-04-18T18:35:11.850Z,102087.69
2023-04-18T18:37:40.864Z,102091.66
2023-04-18T18:40:10.219Z,102092.66
2023-04-18T18:42:38.094Z,102086.56
2023-04-18T18:45:07.531Z,102093.03
2023-04-18T18:47:37.477Z,102094.25
2023-04-18T18:50:09.003Z,102099.75
2023-04-18T18:52:36.970Z,102102.00
2023-04-18T18:55:05.402Z,102104.88
2023-04-18T18:57:34.285Z,102106.13
2023-04-18T19:00:02.410Z,102108.22
2023-04-18T19:02:30.576Z,102113.94
2023-04-18T19:04:59.072Z,102118.81
2023-04-18T19:07:29.947Z,102120.81
2023-04-18T19:10:00.474Z,102128.53
2023-04-18T19:12:29.143Z,102116.78
2023-04-18T19:14:57.354Z,102119.75
2023-04-18T19:17:25.757Z,102125.50
2023-04-18T19:19:57.900Z,102138.47
2023-04-18T19:22:25.947Z,102138.03
2023-04-18T19:24:55.251Z,102145.16
2023-04-18T19:27:24.018Z,102145.50
2023-04-18T19:29:51.995Z,102141.09
2023-04-18T19:32:20.565Z,102139.50
2023-04-18T19:34:48.798Z,102143.44
2023-04-18T19:37:16.884Z,102139.81
2023-04-18T19:39:44.832Z,102145.53
2023-04-18T19:42:14.288Z,102141.94
2023-04-18T19:44:42.320Z,102156.88
2023-04-18T19:47:10.242Z,102146.88
2023-04-18T19:49:38.218Z,102143.50
2023-04-18T19:52:06.543Z,102149.00
2023-04-18T19:54:34.470Z,102149.31
2023-04-18T19:57:04.582Z,102145.81
2023-04-18T19:59:33.896Z,102147.81
2023-04-18T20:02:05.087Z,102145.28
2023-04-18T20:04:36.534Z,102154.75
2023-04-18T20:07:04.718Z,102154.75
2023-04-18T20:09:32.729Z,102148.50
2023-04-18T20:12:01.942Z,102150.47
2023-04-18T20:14:30.153Z,102152.44
2023-04-18T20:16:59.427Z,102153.31
2023-04-18T20:19:29.775Z,102148.19
2023-04-18T20:21:57.785Z,102147.41
2023-04-18T20:24:28.036Z,102147.50
2023-04-18T20:26:57.205Z,102144.78
2023-04-18T20:29:25.390Z,102149.38
2023-04-18T20:31:53.371Z,102164.09
2023-04-18T20:34:22.875Z,102168.59
2023-04-18T20:36:52.474Z,102160.72
2023-04-18T20:39:20.588Z,102167.97
2023-04-18T20:41:51.515Z,102177.94
2023-04-18T20:44:20.990Z,102169.94
2023-04-18T20:46:49.011Z,102179.03
2023-04-18T20:49:17.170Z,102181.78
2023-04-18T20:51:46.574Z,102177.06
2023-04-18T20:54:14.802Z,102178.06
2023-04-18T20:56:42.985Z,102174.44
2023-04-18T20:59:10.908Z,102176.19
2023-04-18T21:01:38.860Z,102178.94
2023-04-18T21:04:07.097Z,102177.19
2023-04-18T21:06:35.068Z,102181.78
2023-04-18T21:09:04.668Z,102188.94
2023-04-18T21:11:32.657Z,102189.91
2023-04-18T21:14:00.686Z,102178.06
2023-04-18T21:16:28.687Z,102186.19
2023-04-18T21:18:56.620Z,102187.16
2023-04-18T21:21:25.567Z,102180.81
2023-04-18T21:23:53.540Z,102191.78
2023-04-18T21:26:23.304Z,102190.00
2023-04-18T21:28:58.199Z,102188.03
2023-04-18T21:31:27.154Z,102192.88
2023-04-18T21:33:55.932Z,102183.84
2023-04-18T21:36:26.406Z,102185.63
2023-04-18T21:38:55.420Z,102192.19
2023-04-18T21:41:25.280Z,102196.84
2023-04-18T21:43:54.065Z,102195.97
2023-04-18T21:46:22.134Z,102196.06
2023-04-18T21:48:50.268Z,102201.66
2023-04-18T21:51:18.416Z,102194.41
2023-04-18T21:53:46.396Z,102193.53
2023-04-18T21:56:14.333Z,102196.38
2023-04-18T21:58:43.663Z,102196.28
2023-04-18T22:01:11.890Z,102198.25
2023-04-18T22:03:40.195Z,102201.13
2023-04-18T22:06:08.662Z,102196.50
2023-04-18T22:08:36.818Z,102192.13
2023-04-18T22:11:05.131Z,102199.47
2023-04-18T22:13:33.941Z,102183.00
2023-04-18T22:16:04.053Z,102192.00
2023-04-18T22:18:34.047Z,102202.97
2023-04-18T22:21:02.381Z,102196.72
2023-04-18T22:23:31.129Z,102197.69
2023-04-18T22:25:59.186Z,102205.94
2023-04-18T22:28:27.994Z,102196.81
2023-04-18T22:30:56.191Z,102205.16
2023-04-18T22:33:25.637Z,102202.22
2023-04-18T22:35:54.202Z,102207.91
2023-04-18T22:38:22.179Z,102199.78
2023-04-18T22:40:50.123Z,102195.16
2023-04-18T22:43:22.502Z,102194.44
2023-04-18T22:45:50.964Z,102200.13
2023-04-18T22:48:19.620Z,102204.63
2023-04-18T22:50:49.724Z,102196.28
2023-04-18T22:53:17.893Z,102200.91
2023-04-18T22:55:46.248Z,102211.75
2023-04-18T22:58:15.066Z,102209.88
2023-04-18T23:00:43.946Z,102198.91
2023-04-18T23:03:12.025Z,102204.38
2023-04-18T23:05:41.025Z,102199.78
2023-04-18T23:08:11.852Z,102199.56
2023-04-18T23:10:39.961Z,102190.56
2023-04-18T23:13:08.321Z,102200.66
2023-04-18T23:15:36.597Z,102193.31
2023-04-18T23:18:05.018Z,102196.94
2023-04-18T23:20:33.162Z,102198.78
2023-04-18T23:23:01.361Z,102185.19
2023-04-18T23:25:33.408Z,102195.94
2023-04-18T23:28:02.158Z,102194.44
2023-04-18T23:30:30.232Z,102191.53
2023-04-18T23:32:58.793Z,102190.66
2023-04-18T23:35:27.155Z,102197.03
2023-04-18T23:37:57.123Z,102193.31
2023-04-18T23:40:25.455Z,102194.28
2023-04-18T23:42:55.203Z,102197.81
2023-04-18T23:45:24.315Z,102196.94
2023-04-18T23:47:52.456Z,102195.94
2023-04-18T23:50:21.438Z,102191.34
2023-04-18T23:52:49.309Z,102193.19
2023-04-18T23:55:19.263Z,102191.13
2023-04-18T23:57:48.671Z,102188.50
